sensor_id;sensor_type;location;lat;lon;timestamp;P1;P2;P0
75946;PMS5003;64628;50.104;14.614;2023-05-23T00:02:10;14;13;
75946;PMS5003;64628;50.104;14.614;2023-05-23T00:04:35;17;15;
75946;PMS5003;64628;50.104;14.614;2023-05-23T00:07:00;20;15;
75946;PMS5003;64628;50.104;14.614;2023-05-23T00:09:25;15;14;
75946;PMS5003;64628;50.104;14.614;2023-05-23T00:11:51;12;11;
75946;PMS5003;64628;50.104;14.614;2023-05-23T00:14:17;32;29;
75946;PMS5003;64628;50.104;14.614;2023-05-23T00:16:42;23;21;
75946;PMS5003;64628;50.104;14.614;2023-05-23T00:19:08;19;17;
75946;PMS5003;64628;50.104;14.614;2023-05-23T00:21:33;17;14;
75946;PMS5003;64628;50.104;14.614;2023-05-23T00:23:58;25;23;
75946;PMS5003;64628;50.104;14.614;2023-05-23T00:26:23;16;15;
75946;PMS5003;64628;50.104;14.614;2023-05-23T00:28:49;15;14;
75946;PMS5003;64628;50.104;14.614;2023-05-23T00:31:14;18;15;
75946;PMS5003;64628;50.104;14.614;2023-05-23T00:33:39;16;16;
75946;PMS5003;64628;50.104;14.614;2023-05-23T00:36:05;23;20;
75946;PMS5003;64628;50.104;14.614;2023-05-23T00:38:30;20;18;
75946;PMS5003;64628;50.104;14.614;2023-05-23T00:40:55;17;15;
75946;PMS5003;64628;50.104;14.614;2023-05-23T00:43:21;20;16;
75946;PMS5003;64628;50.104;14.614;2023-05-23T01:17:42;16;16;
75946;PMS5003;64628;50.104;14.614;2023-05-23T01:46:25;16;14;
75946;PMS5003;64628;50.104;14.614;2023-05-23T01:48:50;16;16;
75946;PMS5003;64628;50.104;14.614;2023-05-23T01:51:16;17;17;
75946;PMS5003;64628;50.104;14.614;2023-05-23T01:53:42;17;16;
75946;PMS5003;64628;50.104;14.614;2023-05-23T01:56:08;23;20;
75946;PMS5003;64628;50.104;14.614;2023-05-23T01:58:33;18;16;
75946;PMS5003;64628;50.104;14.614;2023-05-23T02:00:59;17;16;
75946;PMS5003;64628;50.104;14.614;2023-05-23T02:03:24;20;19;
75946;PMS5003;64628;50.104;14.614;2023-05-23T02:05:50;17;15;
75946;PMS5003;64628;50.104;14.614;2023-05-23T02:08:15;18;16;
75946;PMS5003;64628;50.104;14.614;2023-05-23T02:10:41;28;23;
75946;PMS5003;64628;50.104;14.614;2023-05-23T02:13:06;24;20;
75946;PMS5003;64628;50.104;14.614;2023-05-23T02:15:32;19;15;
75946;PMS5003;64628;50.104;14.614;2023-05-23T02:17:57;17;15;
75946;PMS5003;64628;50.104;14.614;2023-05-23T02:20:22;17;16;
75946;PMS5003;64628;50.104;14.614;2023-05-23T02:22:48;19;16;
75946;PMS5003;64628;50.104;14.614;2023-05-23T02:25:13;20;19;
75946;PMS5003;64628;50.104;14.614;2023-05-23T02:27:39;21;20;
75946;PMS5003;64628;50.104;14.614;2023-05-23T02:30:06;20;18;
75946;PMS5003;64628;50.104;14.614;2023-05-23T02:32:30;21;19;
75946;PMS5003;64628;50.104;14.614;2023-05-23T02:34:56;20;17;
75946;PMS5003;64628;50.104;14.614;2023-05-23T02:37:22;20;18;
75946;PMS5003;64628;50.104;14.614;2023-05-23T02:39:47;22;22;
75946;PMS5003;64628;50.104;14.614;2023-05-23T02:42:13;19;17;
75946;PMS5003;64628;50.104;14.614;2023-05-23T02:44:38;20;19;
75946;PMS5003;64628;50.104;14.614;2023-05-23T02:47:04;19;18;
75946;PMS5003;64628;50.104;14.614;2023-05-23T02:49:30;18;17;
75946;PMS5003;64628;50.104;14.614;2023-05-23T02:51:55;20;17;
75946;PMS5003;64628;50.104;14.614;2023-05-23T02:54:21;21;19;
75946;PMS5003;64628;50.104;14.614;2023-05-23T02:56:46;17;16;
75946;PMS5003;64628;50.104;14.614;2023-05-23T02:59:12;18;14;
75946;PMS5003;64628;50.104;14.614;2023-05-23T05:27:05;16;16;
75946;PMS5003;64628;50.104;14.614;2023-05-23T05:29:31;22;21;
75946;PMS5003;64628;50.104;14.614;2023-05-23T05:31:57;23;22;
75946;PMS5003;64628;50.104;14.614;2023-05-23T05:34:22;13;13;
75946;PMS5003;64628;50.104;14.614;2023-05-23T05:36:47;19;16;
75946;PMS5003;64628;50.104;14.614;2023-05-23T05:39:13;19;16;
75946;PMS5003;64628;50.104;14.614;2023-05-23T05:41:38;17;17;
75946;PMS5003;64628;50.104;14.614;2023-05-23T05:44:03;18;16;
75946;PMS5003;64628;50.104;14.614;2023-05-23T05:46:29;18;18;
75946;PMS5003;64628;50.104;14.614;2023-05-23T05:48:54;23;23;
75946;PMS5003;64628;50.104;14.614;2023-05-23T05:51:20;17;15;
75946;PMS5003;64628;50.104;14.614;2023-05-23T05:53:45;15;15;
75946;PMS5003;64628;50.104;14.614;2023-05-23T05:56:11;14;14;
75946;PMS5003;64628;50.104;14.614;2023-05-23T05:58:37;17;16;
75946;PMS5003;64628;50.104;14.614;2023-05-23T06:01:02;15;13;
75946;PMS5003;64628;50.104;14.614;2023-05-23T06:03:27;18;16;
75946;PMS5003;64628;50.104;14.614;2023-05-23T06:05:53;18;18;
75946;PMS5003;64628;50.104;14.614;2023-05-23T06:08:18;23;18;
75946;PMS5003;64628;50.104;14.614;2023-05-23T06:10:43;20;19;
75946;PMS5003;64628;50.104;14.614;2023-05-23T06:13:09;16;16;
75946;PMS5003;64628;50.104;14.614;2023-05-23T06:15:35;20;16;
75946;PMS5003;64628;50.104;14.614;2023-05-23T06:18:00;16;16;
75946;PMS5003;64628;50.104;14.614;2023-05-23T06:20:26;18;16;
75946;PMS5003;64628;50.104;14.614;2023-05-23T06:22:51;18;18;
75946;PMS5003;64628;50.104;14.614;2023-05-23T06:25:16;20;16;
75946;PMS5003;64628;50.104;14.614;2023-05-23T06:27:42;16;15;
75946;PMS5003;64628;50.104;14.614;2023-05-23T06:30:08;24;20;
75946;PMS5003;64628;50.104;14.614;2023-05-23T06:32:33;23;19;
75946;PMS5003;64628;50.104;14.614;2023-05-23T06:34:58;24;22;
75946;PMS5003;64628;50.104;14.614;2023-05-23T06:37:23;17;16;
75946;PMS5003;64628;50.104;14.614;2023-05-23T06:39:49;21;18;
75946;PMS5003;64628;50.104;14.614;2023-05-23T06:42:14;19;18;
75946;PMS5003;64628;50.104;14.614;2023-05-23T06:44:39;16;14;
75946;PMS5003;64628;50.104;14.614;2023-05-23T06:47:05;19;16;
75946;PMS5003;64628;50.104;14.614;2023-05-23T06:49:30;15;14;
75946;PMS5003;64628;50.104;14.614;2023-05-23T06:51:56;14;12;
75946;PMS5003;64628;50.104;14.614;2023-05-23T06:54:21;23;17;
75946;PMS5003;64628;50.104;14.614;2023-05-23T06:56:47;19;17;
75946;PMS5003;64628;50.104;14.614;2023-05-23T06:59:12;20;16;
75946;PMS5003;64628;50.104;14.614;2023-05-23T07:01:37;19;18;
75946;PMS5003;64628;50.104;14.614;2023-05-23T07:04:02;17;16;
75946;PMS5003;64628;50.104;14.614;2023-05-23T07:06:27;21;19;
75946;PMS5003;64628;50.104;14.614;2023-05-23T07:08:52;14;13;
75946;PMS5003;64628;50.104;14.614;2023-05-23T07:11:18;16;15;
75946;PMS5003;64628;50.104;14.614;2023-05-23T07:13:43;19;16;
75946;PMS5003;64628;50.104;14.614;2023-05-23T07:16:09;17;17;
75946;PMS5003;64628;50.104;14.614;2023-05-23T07:18:34;15;14;
75946;PMS5003;64628;50.104;14.614;2023-05-23T07:20:59;22;19;
75946;PMS5003;64628;50.104;14.614;2023-05-23T07:23:25;18;18;
75946;PMS5003;64628;50.104;14.614;2023-05-23T07:25:51;14;12;
75946;PMS5003;64628;50.104;14.614;2023-05-23T07:28:16;16;14;
75946;PMS5003;64628;50.104;14.614;2023-05-23T07:30:42;16;16;
75946;PMS5003;64628;50.104;14.614;2023-05-23T07:33:07;16;15;
75946;PMS5003;64628;50.104;14.614;2023-05-23T07:35:32;17;16;
75946;PMS5003;64628;50.104;14.614;2023-05-23T07:37:58;17;15;
75946;PMS5003;64628;50.104;14.614;2023-05-23T07:40:24;19;17;
75946;PMS5003;64628;50.104;14.614;2023-05-23T07:42:49;19;16;
75946;PMS5003;64628;50.104;14.614;2023-05-23T07:45:15;18;18;
75946;PMS5003;64628;50.104;14.614;2023-05-23T07:47:40;21;19;
75946;PMS5003;64628;50.104;14.614;2023-05-23T07:50:07;24;18;
75946;PMS5003;64628;50.104;14.614;2023-05-23T07:52:31;36;33;
75946;PMS5003;64628;50.104;14.614;2023-05-23T07:54:56;41;38;
75946;PMS5003;64628;50.104;14.614;2023-05-23T07:57:21;23;21;
75946;PMS5003;64628;50.104;14.614;2023-05-23T07:59:47;17;16;
75946;PMS5003;64628;50.104;14.614;2023-05-23T08:02:12;18;17;
75946;PMS5003;64628;50.104;14.614;2023-05-23T08:04:37;17;15;
75946;PMS5003;64628;50.104;14.614;2023-05-23T08:07:03;18;16;
75946;PMS5003;64628;50.104;14.614;2023-05-23T08:09:29;22;21;
75946;PMS5003;64628;50.104;14.614;2023-05-23T08:11:54;35;29;
75946;PMS5003;64628;50.104;14.614;2023-05-23T08:14:20;24;23;
75946;PMS5003;64628;50.104;14.614;2023-05-23T08:16:45;20;19;
75946;PMS5003;64628;50.104;14.614;2023-05-23T08:19:11;19;17;
75946;PMS5003;64628;50.104;14.614;2023-05-23T08:21:36;18;17;
75946;PMS5003;64628;50.104;14.614;2023-05-23T08:24:01;14;13;
75946;PMS5003;64628;50.104;14.614;2023-05-23T08:26:27;17;15;
75946;PMS5003;64628;50.104;14.614;2023-05-23T08:28:52;16;16;
75946;PMS5003;64628;50.104;14.614;2023-05-23T08:31:18;18;17;
75946;PMS5003;64628;50.104;14.614;2023-05-23T08:33:43;14;13;
75946;PMS5003;64628;50.104;14.614;2023-05-23T08:36:09;12;12;
75946;PMS5003;64628;50.104;14.614;2023-05-23T08:38:34;18;15;
75946;PMS5003;64628;50.104;14.614;2023-05-23T08:41:00;12;12;
75946;PMS5003;64628;50.104;14.614;2023-05-23T08:43:25;19;19;
75946;PMS5003;64628;50.104;14.614;2023-05-23T08:45:51;16;16;
75946;PMS5003;64628;50.104;14.614;2023-05-23T08:48:17;13;13;
75946;PMS5003;64628;50.104;14.614;2023-05-23T08:50:44;17;17;
75946;PMS5003;64628;50.104;14.614;2023-05-23T08:53:08;18;18;
75946;PMS5003;64628;50.104;14.614;2023-05-23T08:55:34;17;17;
75946;PMS5003;64628;50.104;14.614;2023-05-23T08:57:59;33;32;
75946;PMS5003;64628;50.104;14.614;2023-05-23T09:00:25;34;31;
75946;PMS5003;64628;50.104;14.614;2023-05-23T09:02:50;34;28;
75946;PMS5003;64628;50.104;14.614;2023-05-23T09:05:16;39;39;
75946;PMS5003;64628;50.104;14.614;2023-05-23T09:07:41;31;31;
75946;PMS5003;64628;50.104;14.614;2023-05-23T09:10:07;33;32;
75946;PMS5003;64628;50.104;14.614;2023-05-23T09:12:32;32;32;
75946;PMS5003;64628;50.104;14.614;2023-05-23T09:14:57;34;33;
75946;PMS5003;64628;50.104;14.614;2023-05-23T09:17:22;32;31;
75946;PMS5003;64628;50.104;14.614;2023-05-23T09:19:48;41;39;
75946;PMS5003;64628;50.104;14.614;2023-05-23T09:22:13;54;54;
75946;PMS5003;64628;50.104;14.614;2023-05-23T09:24:39;22;20;
75946;PMS5003;64628;50.104;14.614;2023-05-23T09:27:04;19;16;
75946;PMS5003;64628;50.104;14.614;2023-05-23T09:29:30;22;18;
75946;PMS5003;64628;50.104;14.614;2023-05-23T10:05:49;34;32;
75946;PMS5003;64628;50.104;14.614;2023-05-23T10:08:17;26;24;
75946;PMS5003;64628;50.104;14.614;2023-05-23T10:13:05;25;24;
75946;PMS5003;64628;50.104;14.614;2023-05-23T10:15:33;26;23;
75946;PMS5003;64628;50.104;14.614;2023-05-23T10:18:00;30;29;
75946;PMS5003;64628;50.104;14.614;2023-05-23T10:20:23;31;30;
75946;PMS5003;64628;50.104;14.614;2023-05-23T10:22:48;25;23;
75946;PMS5003;64628;50.104;14.614;2023-05-23T10:25:13;29;28;
75946;PMS5003;64628;50.104;14.614;2023-05-23T10:27:38;21;21;
75946;PMS5003;64628;50.104;14.614;2023-05-23T10:30:04;29;27;
75946;PMS5003;64628;50.104;14.614;2023-05-23T10:32:29;33;31;
75946;PMS5003;64628;50.104;14.614;2023-05-23T10:34:55;37;34;
75946;PMS5003;64628;50.104;14.614;2023-05-23T10:37:22;43;40;
75946;PMS5003;64628;50.104;14.614;2023-05-23T10:39:48;34;30;
75946;PMS5003;64628;50.104;14.614;2023-05-23T10:42:14;36;32;
75946;PMS5003;64628;50.104;14.614;2023-05-23T10:44:36;29;29;
75946;PMS5003;64628;50.104;14.614;2023-05-23T10:47:02;34;31;
75946;PMS5003;64628;50.104;14.614;2023-05-23T10:51:52;28;26;
75946;PMS5003;64628;50.104;14.614;2023-05-23T10:54:18;31;30;
75946;PMS5003;64628;50.104;14.614;2023-05-23T10:56:43;26;24;
75946;PMS5003;64628;50.104;14.614;2023-05-23T10:59:11;31;27;
75946;PMS5003;64628;50.104;14.614;2023-05-23T11:01:37;37;34;
75946;PMS5003;64628;50.104;14.614;2023-05-23T11:04:04;28;27;
75946;PMS5003;64628;50.104;14.614;2023-05-23T11:06:29;29;27;
75946;PMS5003;64628;50.104;14.614;2023-05-23T11:09:00;31;28;
75946;PMS5003;64628;50.104;14.614;2023-05-23T11:11:16;27;25;
75946;PMS5003;64628;50.104;14.614;2023-05-23T11:18:33;36;34;
75946;PMS5003;64628;50.104;14.614;2023-05-23T11:20:58;32;30;
75946;PMS5003;64628;50.104;14.614;2023-05-23T11:23:24;32;30;
75946;PMS5003;64628;50.104;14.614;2023-05-23T11:25:49;38;37;
75946;PMS5003;64628;50.104;14.614;2023-05-23T11:28:15;36;33;
75946;PMS5003;64628;50.104;14.614;2023-05-23T11:30:40;37;37;
75946;PMS5003;64628;50.104;14.614;2023-05-23T11:33:06;39;39;
75946;PMS5003;64628;50.104;14.614;2023-05-23T11:35:30;30;29;
75946;PMS5003;64628;50.104;14.614;2023-05-23T11:37:56;39;37;
75946;PMS5003;64628;50.104;14.614;2023-05-23T11:40:25;33;32;
75946;PMS5003;64628;50.104;14.614;2023-05-23T11:42:46;38;34;
75946;PMS5003;64628;50.104;14.614;2023-05-23T11:45:11;41;38;
75946;PMS5003;64628;50.104;14.614;2023-05-23T11:47:39;34;33;
75946;PMS5003;64628;50.104;14.614;2023-05-23T15:11:19;29;28;
75946;PMS5003;64628;50.104;14.614;2023-05-23T15:13:45;23;22;
75946;PMS5003;64628;50.104;14.614;2023-05-23T15:16:10;24;21;
75946;PMS5003;64628;50.104;14.614;2023-05-23T15:18:36;27;23;
75946;PMS5003;64628;50.104;14.614;2023-05-23T15:21:01;21;20;
75946;PMS5003;64628;50.104;14.614;2023-05-23T15:23:26;16;15;
75946;PMS5003;64628;50.104;14.614;2023-05-23T15:25:52;16;15;
75946;PMS5003;64628;50.104;14.614;2023-05-23T15:28:18;11;11;
75946;PMS5003;64628;50.104;14.614;2023-05-23T15:30:43;16;16;
75946;PMS5003;64628;50.104;14.614;2023-05-23T15:33:08;18;15;
75946;PMS5003;64628;50.104;14.614;2023-05-23T15:35:34;13;12;
75946;PMS5003;64628;50.104;14.614;2023-05-23T15:42:57;11;11;
75946;PMS5003;64628;50.104;14.614;2023-05-23T16:21:49;12;12;
75946;PMS5003;64628;50.104;14.614;2023-05-23T16:38:41;15;14;
75946;PMS5003;64628;50.104;14.614;2023-05-23T16:46:04;11;11;
75946;PMS5003;64628;50.104;14.614;2023-05-23T16:48:27;10;10;
75946;PMS5003;64628;50.104;14.614;2023-05-23T17:22:19;10;10;
75946;PMS5003;64628;50.104;14.614;2023-05-23T17:29:28;9;8;
75946;PMS5003;64628;50.104;14.614;2023-05-23T17:31:53;10;10;
75946;PMS5003;64628;50.104;14.614;2023-05-23T17:34:17;12;9;
75946;PMS5003;64628;50.104;14.614;2023-05-23T17:39:08;12;9;
75946;PMS5003;64628;50.104;14.614;2023-05-23T17:41:36;9;9;
75946;PMS5003;64628;50.104;14.614;2023-05-23T17:43:59;14;11;
75946;PMS5003;64628;50.104;14.614;2023-05-23T17:46:23;9;9;
75946;PMS5003;64628;50.104;14.614;2023-05-23T17:48:49;7;7;
75946;PMS5003;64628;50.104;14.614;2023-05-23T17:51:21;9;9;
75946;PMS5003;64628;50.104;14.614;2023-05-23T17:53:48;7;7;
75946;PMS5003;64628;50.104;14.614;2023-05-23T18:08:09;6;6;
75946;PMS5003;64628;50.104;14.614;2023-05-23T18:10:36;5;5;
75946;PMS5003;64628;50.104;14.614;2023-05-23T18:13:02;5;5;
75946;PMS5003;64628;50.104;14.614;2023-05-23T18:17:51;5;5;
75946;PMS5003;64628;50.104;14.614;2023-05-23T18:20:23;4;4;
75946;PMS5003;64628;50.104;14.614;2023-05-23T18:25:20;5;5;
75946;PMS5003;64628;50.104;14.614;2023-05-23T18:37:14;3;3;
75946;PMS5003;64628;50.104;14.614;2023-05-23T18:49:22;6;6;
75946;PMS5003;64628;50.104;14.614;2023-05-23T18:51:56;9;9;
75946;PMS5003;64628;50.104;14.614;2023-05-23T18:56:37;30;29;
75946;PMS5003;64628;50.104;14.614;2023-05-23T19:13:37;64;61;
75946;PMS5003;64628;50.104;14.614;2023-05-23T19:16:06;77;77;
75946;PMS5003;64628;50.104;14.614;2023-05-23T19:28:04;18;18;
75946;PMS5003;64628;50.104;14.614;2023-05-23T19:32:56;9;9;
75946;PMS5003;64628;50.104;14.614;2023-05-23T19:52:17;5;4;
75946;PMS5003;64628;50.104;14.614;2023-05-23T19:54:42;3;3;
75946;PMS5003;64628;50.104;14.614;2023-05-23T19:57:13;5;5;
75946;PMS5003;64628;50.104;14.614;2023-05-23T19:59:33;3;3;
75946;PMS5003;64628;50.104;14.614;2023-05-23T20:04:23;6;5;
75946;PMS5003;64628;50.104;14.614;2023-05-23T20:06:48;6;5;
75946;PMS5003;64628;50.104;14.614;2023-05-23T20:09:13;6;6;
75946;PMS5003;64628;50.104;14.614;2023-05-23T20:11:44;6;5;
75946;PMS5003;64628;50.104;14.614;2023-05-23T20:28:35;5;5;
75946;PMS5003;64628;50.104;14.614;2023-05-23T20:35:52;6;5;
75946;PMS5003;64628;50.104;14.614;2023-05-23T20:38:17;4;4;
75946;PMS5003;64628;50.104;14.614;2023-05-23T20:40:42;3;3;
75946;PMS5003;64628;50.104;14.614;2023-05-23T20:43:07;4;4;
75946;PMS5003;64628;50.104;14.614;2023-05-23T20:45:33;3;3;
75946;PMS5003;64628;50.104;14.614;2023-05-23T20:47:58;6;5;
75946;PMS5003;64628;50.104;14.614;2023-05-23T20:50:23;6;4;
75946;PMS5003;64628;50.104;14.614;2023-05-23T20:52:48;5;3;
75946;PMS5003;64628;50.104;14.614;2023-05-23T20:55:13;6;4;
75946;PMS5003;64628;50.104;14.614;2023-05-23T23:27:44;7;4;
75946;PMS5003;64628;50.104;14.614;2023-05-23T23:30:10;3;3;
75946;PMS5003;64628;50.104;14.614;2023-05-23T23:32:35;6;5;
75946;PMS5003;64628;50.104;14.614;2023-05-23T23:35:00;5;5;
75946;PMS5003;64628;50.104;14.614;2023-05-23T23:37:25;4;3;
75946;PMS5003;64628;50.104;14.614;2023-05-23T23:39:51;5;5;
75946;PMS5003;64628;50.104;14.614;2023-05-23T23:42:16;8;5;
75946;PMS5003;64628;50.104;14.614;2023-05-23T23:44:41;4;4;
75946;PMS5003;64628;50.104;14.614;2023-05-23T23:47:06;4;4;
75946;PMS5003;64628;50.104;14.614;2023-05-23T23:49:32;5;5;
75946;PMS5003;64628;50.104;14.614;2023-05-23T23:51:57;8;7;
75946;PMS5003;64628;50.104;14.614;2023-05-23T23:54:23;7;6;
75946;PMS5003;64628;50.104;14.614;2023-05-23T23:56:48;6;6;
75946;PMS5003;64628;50.104;14.614;2023-05-23T23:59:13;8;7;
